Pompano Beach, FL (33064)

10:35 PM EDT on September 02, 2014 (GMT -0400)
Lighthouse Point Estates | Change Station
CLOSE
Current Station
Personal Weather Station
Location: Lighthouse Point, FL
Elevation: 4 ft
Nearby Weather Stations

Elev 4 ft 26.27 °N, 80.10 °W | Updated 1 second ago

Partly Cloudy
Partly Cloudy
78.7 °F
Feels Like 81 °F
N
0.0
Wind Variable Wind from South
Gusts 2.0 mph

Today
High -- | Low -- °F
--% Chance of Precip.
Yesterday
High -- | Low -- °F
Precip. -- in
7:00 AM 7:39 PM
First Quarter, 57% visible
Pressure 30.04 in
Visibility 10.0 miles
Clouds Few 9000 ft
Heat Index 81 °F
Dew Point 70 °F
Humidity 76%
Rainfall 0.00 in
Snow Depth Not available.
UV 0 out of 12
Pollen 5.30 out of 12
Ozone Good
Flu Activity Not available.
METAR KPMP 030153Z AUTO 11004KT 10SM FEW090 27/20 A3004 RMK AO2 RAB0058E07 SLP172 P0000 T02720200

More Conditions Fewer Conditions

Pressure 30.04 in
Visibility 10.0 miles
Clouds Few 9000 ft
Heat Index 81 °F
Dew Point 70 °F
Humidity 76%
Rainfall 0.00 in
Snow Depth Not available.
UV 0 out of 12
Pollen 5.30 out of 12
Ozone Good
Flu Activity Not available.
METAR KPMP 030153Z AUTO 11004KT 10SM FEW090 27/20 A3004 RMK AO2 RAB0058E07 SLP172 P0000 T02720200

More Conditions Fewer Conditions

10-Day Weather Forecast

Almanac

Astronomy

Sep. 02, 2014 Rise Set
Actual Time 7:00 AM EDT 7:39 PM EDT
Civil Twilight 6:37 AM EDT 8:02 PM EDT
Nautical Twilight 6:09 AM EDT 8:30 PM EDT
Astronomical Twilight 5:41 AM EDT 8:57 PM EDT
Moon 2:03 PM EDT (9/2) 12:18 AM EDT (9/2)
Length of Visible Light 13h 25m
Length of Day
12h 38m
Tomorrow will be 1m 29s shorter.
First Quarter, 57% of the Moon is Illuminated
Today
First Quarter
Sep 8
Full
Sep 15
Last Quarter
Sep 24
New
Oct 1
First Quarter

Today's Extremes

State Highs State Lows

Community

WunderPhotos

Upload Photos

1,749,845 photos uploaded!

Nearby

Air Quality

  Air Quality AQ Index Pollutant
Yesterday Good
OZONE
Current Good
OZONE
Tuesday Good
PM2.5
Wednesday Good
OZONE

Snow Depth

Station Depth Elevation
No new snow has been reported.

Earthquake Activity

City Distance Mag. Time & Date
No recent earthquake activity has been reported nearby.
Minimum magnitude displayed is 2.5.

Coastal Water Temperatures

Place Temperature
Virginia Key, FL 87.1 °F

Nearby Weather Stations